sensor_id;sensor_type;location;lat;lon;timestamp;temperature;humidity
74968;SHT30;63523;51.880;12.630;2023-07-13T00:00:12;17.91;67.69
74968;SHT30;63523;51.880;12.630;2023-07-13T00:02:40;17.72;66.30
74968;SHT30;63523;51.880;12.630;2023-07-13T00:05:06;17.62;69.30
74968;SHT30;63523;51.880;12.630;2023-07-13T00:07:31;17.49;69.89
74968;SHT30;63523;51.880;12.630;2023-07-13T00:09:57;17.32;66.98
74968;SHT30;63523;51.880;12.630;2023-07-13T00:12:31;17.28;65.34
74968;SHT30;63523;51.880;12.630;2023-07-13T00:14:59;17.25;64.32
74968;SHT30;63523;51.880;12.630;2023-07-13T00:17:26;17.24;64.58
74968;SHT30;63523;51.880;12.630;2023-07-13T00:19:52;17.29;64.57
74968;SHT30;63523;51.880;12.630;2023-07-13T00:22:17;17.36;64.63
74968;SHT30;63523;51.880;12.630;2023-07-13T00:24:44;17.52;64.59
74968;SHT30;63523;51.880;12.630;2023-07-13T00:27:09;17.61;64.71
74968;SHT30;63523;51.880;12.630;2023-07-13T00:29:35;17.61;65.16
74968;SHT30;63523;51.880;12.630;2023-07-13T00:32:05;17.52;66.21
74968;SHT30;63523;51.880;12.630;2023-07-13T00:34:30;17.38;68.58
74968;SHT30;63523;51.880;12.630;2023-07-13T00:36:56;17.24;67.96
74968;SHT30;63523;51.880;12.630;2023-07-13T00:39:22;17.14;67.27
74968;SHT30;63523;51.880;12.630;2023-07-13T00:41:48;17.06;66.93
74968;SHT30;63523;51.880;12.630;2023-07-13T00:44:14;17.06;67.11
74968;SHT30;63523;51.880;12.630;2023-07-13T00:46:39;17.08;67.29
74968;SHT30;63523;51.880;12.630;2023-07-13T00:49:18;17.14;67.61
74968;SHT30;63523;51.880;12.630;2023-07-13T00:51:50;17.17;68.18
74968;SHT30;63523;51.880;12.630;2023-07-13T00:54:26;17.18;67.64
74968;SHT30;63523;51.880;12.630;2023-07-13T00:56:56;17.22;66.40
74968;SHT30;63523;51.880;12.630;2023-07-13T00:59:23;17.25;66.05
74968;SHT30;63523;51.880;12.630;2023-07-13T01:01:49;17.28;65.86
74968;SHT30;63523;51.880;12.630;2023-07-13T01:04:15;17.29;65.76
74968;SHT30;63523;51.880;12.630;2023-07-13T01:06:41;17.29;66.63
74968;SHT30;63523;51.880;12.630;2023-07-13T01:09:09;17.31;67.17
74968;SHT30;63523;51.880;12.630;2023-07-13T01:11:35;17.29;67.09
74968;SHT30;63523;51.880;12.630;2023-07-13T01:14:01;17.27;68.09
74968;SHT30;63523;51.880;12.630;2023-07-13T01:16:31;17.19;67.26
74968;SHT30;63523;51.880;12.630;2023-07-13T01:18:57;17.17;67.14
74968;SHT30;63523;51.880;12.630;2023-07-13T01:21:27;17.12;67.09
74968;SHT30;63523;51.880;12.630;2023-07-13T01:23:53;17.12;67.01
74968;SHT30;63523;51.880;12.630;2023-07-13T01:26:18;17.12;67.79
74968;SHT30;63523;51.880;12.630;2023-07-13T01:28:44;17.08;68.44
74968;SHT30;63523;51.880;12.630;2023-07-13T01:31:09;17.06;68.40
74968;SHT30;63523;51.880;12.630;2023-07-13T01:33:37;17.06;67.86
74968;SHT30;63523;51.880;12.630;2023-07-13T01:36:03;17.04;68.02
74968;SHT30;63523;51.880;12.630;2023-07-13T01:38:28;17.00;69.05
74968;SHT30;63523;51.880;12.630;2023-07-13T01:40:54;16.94;67.78
74968;SHT30;63523;51.880;12.630;2023-07-13T01:43:19;16.88;68.36
74968;SHT30;63523;51.880;12.630;2023-07-13T01:45:45;16.77;69.28
74968;SHT30;63523;51.880;12.630;2023-07-13T01:48:11;16.70;69.37
74968;SHT30;63523;51.880;12.630;2023-07-13T01:50:37;16.62;69.89
74968;SHT30;63523;51.880;12.630;2023-07-13T01:53:03;16.56;69.27
74968;SHT30;63523;51.880;12.630;2023-07-13T01:55:29;16.53;69.42
74968;SHT30;63523;51.880;12.630;2023-07-13T01:57:55;16.53;69.96
74968;SHT30;63523;51.880;12.630;2023-07-13T02:00:21;16.52;70.48
74968;SHT30;63523;51.880;12.630;2023-07-13T02:02:46;16.45;70.37
74968;SHT30;63523;51.880;12.630;2023-07-13T02:05:12;16.42;72.00
74968;SHT30;63523;51.880;12.630;2023-07-13T02:07:38;16.35;71.60
74968;SHT30;63523;51.880;12.630;2023-07-13T02:10:05;16.33;71.94
74968;SHT30;63523;51.880;12.630;2023-07-13T02:12:31;16.29;71.19
74968;SHT30;63523;51.880;12.630;2023-07-13T02:14:56;16.26;70.63
74968;SHT30;63523;51.880;12.630;2023-07-13T02:17:21;16.25;71.21
74968;SHT30;63523;51.880;12.630;2023-07-13T02:19:47;16.25;71.24
74968;SHT30;63523;51.880;12.630;2023-07-13T02:22:12;16.25;71.71
74968;SHT30;63523;51.880;12.630;2023-07-13T02:24:37;16.24;71.81
74968;SHT30;63523;51.880;12.630;2023-07-13T02:27:03;16.18;70.41
74968;SHT30;63523;51.880;12.630;2023-07-13T02:29:29;16.17;70.08
74968;SHT30;63523;51.880;12.630;2023-07-13T02:31:54;16.10;70.29
74968;SHT30;63523;51.880;12.630;2023-07-13T02:34:19;16.08;71.99
74968;SHT30;63523;51.880;12.630;2023-07-13T02:36:45;16.01;71.21
74968;SHT30;63523;51.880;12.630;2023-07-13T02:39:11;15.98;71.60
74968;SHT30;63523;51.880;12.630;2023-07-13T02:41:37;16.01;72.57
74968;SHT30;63523;51.880;12.630;2023-07-13T02:44:02;15.87;71.89
74968;SHT30;63523;51.880;12.630;2023-07-13T02:46:32;15.74;72.85
74968;SHT30;63523;51.880;12.630;2023-07-13T02:48:57;15.70;73.82
74968;SHT30;63523;51.880;12.630;2023-07-13T02:51:23;15.59;73.16
74968;SHT30;63523;51.880;12.630;2023-07-13T02:53:48;15.49;72.66
74968;SHT30;63523;51.880;12.630;2023-07-13T02:56:13;15.38;72.52
74968;SHT30;63523;51.880;12.630;2023-07-13T02:58:39;15.35;72.74
74968;SHT30;63523;51.880;12.630;2023-07-13T03:01:11;15.27;72.83
74968;SHT30;63523;51.880;12.630;2023-07-13T03:03:37;15.17;73.00
74968;SHT30;63523;51.880;12.630;2023-07-13T03:06:04;15.08;73.30
74968;SHT30;63523;51.880;12.630;2023-07-13T03:08:30;15.02;73.96
74968;SHT30;63523;51.880;12.630;2023-07-13T03:10:59;14.98;75.13
74968;SHT30;63523;51.880;12.630;2023-07-13T03:13:25;15.00;76.20
74968;SHT30;63523;51.880;12.630;2023-07-13T03:15:50;15.00;76.10
74968;SHT30;63523;51.880;12.630;2023-07-13T03:18:15;15.08;75.52
74968;SHT30;63523;51.880;12.630;2023-07-13T03:20:41;15.07;75.28
74968;SHT30;63523;51.880;12.630;2023-07-13T03:23:06;15.02;76.04
74968;SHT30;63523;51.880;12.630;2023-07-13T03:25:31;15.05;76.15
74968;SHT30;63523;51.880;12.630;2023-07-13T03:27:56;15.08;75.99
74968;SHT30;63523;51.880;12.630;2023-07-13T03:30:22;15.08;75.86
74968;SHT30;63523;51.880;12.630;2023-07-13T03:32:48;15.11;75.68
74968;SHT30;63523;51.880;12.630;2023-07-13T03:35:13;15.31;75.01
74968;SHT30;63523;51.880;12.630;2023-07-13T03:37:38;15.29;74.83
74968;SHT30;63523;51.880;12.630;2023-07-13T03:40:08;15.29;74.63
74968;SHT30;63523;51.880;12.630;2023-07-13T03:42:34;15.32;75.00
74968;SHT30;63523;51.880;12.630;2023-07-13T03:45:00;15.39;74.77
74968;SHT30;63523;51.880;12.630;2023-07-13T03:47:25;15.48;74.19
74968;SHT30;63523;51.880;12.630;2023-07-13T03:49:50;15.48;74.58
74968;SHT30;63523;51.880;12.630;2023-07-13T03:52:15;15.50;75.53
74968;SHT30;63523;51.880;12.630;2023-07-13T03:54:41;15.45;75.58
74968;SHT30;63523;51.880;12.630;2023-07-13T03:57:06;15.56;75.81
74968;SHT30;63523;51.880;12.630;2023-07-13T03:59:31;15.71;75.24
74968;SHT30;63523;51.880;12.630;2023-07-13T04:01:57;15.80;74.36
74968;SHT30;63523;51.880;12.630;2023-07-13T04:04:22;15.83;74.74
74968;SHT30;63523;51.880;12.630;2023-07-13T04:06:47;15.86;74.54
74968;SHT30;63523;51.880;12.630;2023-07-13T04:09:12;15.96;74.58
74968;SHT30;63523;51.880;12.630;2023-07-13T04:11:38;16.10;73.63
74968;SHT30;63523;51.880;12.630;2023-07-13T04:14:03;16.24;73.61
74968;SHT30;63523;51.880;12.630;2023-07-13T04:16:28;16.38;73.06
74968;SHT30;63523;51.880;12.630;2023-07-13T04:18:55;16.55;72.79
74968;SHT30;63523;51.880;12.630;2023-07-13T04:21:26;16.65;72.08
74968;SHT30;63523;51.880;12.630;2023-07-13T04:23:51;16.65;72.45
74968;SHT30;63523;51.880;12.630;2023-07-13T04:26:16;16.55;71.64
74968;SHT30;63523;51.880;12.630;2023-07-13T04:28:42;16.59;72.15
74968;SHT30;63523;51.880;12.630;2023-07-13T04:31:07;16.62;71.99
74968;SHT30;63523;51.880;12.630;2023-07-13T04:33:32;16.67;71.24
74968;SHT30;63523;51.880;12.630;2023-07-13T04:35:58;16.69;71.95
74968;SHT30;63523;51.880;12.630;2023-07-13T04:38:27;16.74;72.21
74968;SHT30;63523;51.880;12.630;2023-07-13T04:40:55;16.80;72.76
74968;SHT30;63523;51.880;12.630;2023-07-13T04:43:20;16.87;73.45
74968;SHT30;63523;51.880;12.630;2023-07-13T04:45:45;16.93;74.33
74968;SHT30;63523;51.880;12.630;2023-07-13T04:48:11;17.04;73.06
74968;SHT30;63523;51.880;12.630;2023-07-13T04:50:37;17.12;72.48
74968;SHT30;63523;51.880;12.630;2023-07-13T04:53:02;17.27;71.80
74968;SHT30;63523;51.880;12.630;2023-07-13T04:55:29;17.39;71.20
74968;SHT30;63523;51.880;12.630;2023-07-13T04:57:56;17.49;71.21
74968;SHT30;63523;51.880;12.630;2023-07-13T05:00:21;17.61;70.46
74968;SHT30;63523;51.880;12.630;2023-07-13T05:02:46;17.70;69.67
74968;SHT30;63523;51.880;12.630;2023-07-13T05:05:12;17.80;69.30
74968;SHT30;63523;51.880;12.630;2023-07-13T05:07:38;17.93;68.84
74968;SHT30;63523;51.880;12.630;2023-07-13T05:10:03;18.02;69.19
74968;SHT30;63523;51.880;12.630;2023-07-13T05:12:29;18.12;69.61
74968;SHT30;63523;51.880;12.630;2023-07-13T05:14:55;18.22;68.15
74968;SHT30;63523;51.880;12.630;2023-07-13T05:17:21;18.38;68.13
74968;SHT30;63523;51.880;12.630;2023-07-13T05:19:46;18.49;66.47
74968;SHT30;63523;51.880;12.630;2023-07-13T05:22:12;18.59;66.73
74968;SHT30;63523;51.880;12.630;2023-07-13T05:24:37;18.77;66.26
74968;SHT30;63523;51.880;12.630;2023-07-13T05:27:03;18.91;65.99
74968;SHT30;63523;51.880;12.630;2023-07-13T05:29:28;19.03;65.46
74968;SHT30;63523;51.880;12.630;2023-07-13T05:31:54;19.10;65.57
74968;SHT30;63523;51.880;12.630;2023-07-13T05:34:19;19.22;65.75
74968;SHT30;63523;51.880;12.630;2023-07-13T05:36:44;19.31;65.31
74968;SHT30;63523;51.880;12.630;2023-07-13T05:39:09;19.48;64.44
74968;SHT30;63523;51.880;12.630;2023-07-13T05:41:36;19.70;63.73
74968;SHT30;63523;51.880;12.630;2023-07-13T05:44:02;19.90;63.57
74968;SHT30;63523;51.880;12.630;2023-07-13T05:46:27;20.18;63.42
74968;SHT30;63523;51.880;12.630;2023-07-13T05:48:53;20.41;63.87
74968;SHT30;63523;51.880;12.630;2023-07-13T05:51:18;20.51;61.95
74968;SHT30;63523;51.880;12.630;2023-07-13T05:53:43;20.59;62.71
74968;SHT30;63523;51.880;12.630;2023-07-13T05:56:09;20.72;61.85
74968;SHT30;63523;51.880;12.630;2023-07-13T05:58:34;20.79;62.76
74968;SHT30;63523;51.880;12.630;2023-07-13T06:01:05;20.89;60.24
74968;SHT30;63523;51.880;12.630;2023-07-13T06:03:32;20.97;59.88
74968;SHT30;63523;51.880;12.630;2023-07-13T06:05:57;21.04;59.91
74968;SHT30;63523;51.880;12.630;2023-07-13T06:08:22;21.06;59.14
74968;SHT30;63523;51.880;12.630;2023-07-13T06:10:48;21.07;59.39
74968;SHT30;63523;51.880;12.630;2023-07-13T06:13:13;21.01;59.78
74968;SHT30;63523;51.880;12.630;2023-07-13T06:15:38;21.01;60.22
74968;SHT30;63523;51.880;12.630;2023-07-13T06:18:03;21.00;60.65
74968;SHT30;63523;51.880;12.630;2023-07-13T06:20:29;21.00;60.01
74968;SHT30;63523;51.880;12.630;2023-07-13T06:22:54;21.06;59.73
74968;SHT30;63523;51.880;12.630;2023-07-13T06:25:19;21.07;59.39
74968;SHT30;63523;51.880;12.630;2023-07-13T06:27:45;21.17;58.61
74968;SHT30;63523;51.880;12.630;2023-07-13T06:30:11;21.21;58.53
74968;SHT30;63523;51.880;12.630;2023-07-13T06:32:36;21.27;58.87
74968;SHT30;63523;51.880;12.630;2023-07-13T06:35:01;21.39;59.15
74968;SHT30;63523;51.880;12.630;2023-07-13T06:37:27;21.51;59.60
74968;SHT30;63523;51.880;12.630;2023-07-13T06:39:52;21.62;56.88
74968;SHT30;63523;51.880;12.630;2023-07-13T06:42:17;21.65;56.73
74968;SHT30;63523;51.880;12.630;2023-07-13T06:44:42;21.67;56.32
74968;SHT30;63523;51.880;12.630;2023-07-13T06:47:08;21.70;55.55
74968;SHT30;63523;51.880;12.630;2023-07-13T06:49:33;21.80;56.21
74968;SHT30;63523;51.880;12.630;2023-07-13T06:51:58;21.83;55.49
74968;SHT30;63523;51.880;12.630;2023-07-13T06:54:24;21.93;56.22
74968;SHT30;63523;51.880;12.630;2023-07-13T06:56:49;21.97;54.92
74968;SHT30;63523;51.880;12.630;2023-07-13T06:59:14;22.08;54.11
74968;SHT30;63523;51.880;12.630;2023-07-13T07:01:39;22.10;53.88
74968;SHT30;63523;51.880;12.630;2023-07-13T07:04:05;22.27;53.43
74968;SHT30;63523;51.880;12.630;2023-07-13T07:06:30;22.55;54.34
74968;SHT30;63523;51.880;12.630;2023-07-13T07:08:55;22.75;52.44
74968;SHT30;63523;51.880;12.630;2023-07-13T07:11:24;22.90;50.52
74968;SHT30;63523;51.880;12.630;2023-07-13T07:13:52;22.82;51.64
74968;SHT30;63523;51.880;12.630;2023-07-13T07:16:19;22.85;52.09
74968;SHT30;63523;51.880;12.630;2023-07-13T07:18:45;22.90;50.91
74968;SHT30;63523;51.880;12.630;2023-07-13T07:21:10;22.87;51.55
74968;SHT30;63523;51.880;12.630;2023-07-13T07:23:36;22.99;51.97
74968;SHT30;63523;51.880;12.630;2023-07-13T07:26:02;23.02;51.21
74968;SHT30;63523;51.880;12.630;2023-07-13T07:28:27;22.97;51.11
74968;SHT30;63523;51.880;12.630;2023-07-13T07:30:55;22.92;51.86
74968;SHT30;63523;51.880;12.630;2023-07-13T07:33:21;23.08;49.99
74968;SHT30;63523;51.880;12.630;2023-07-13T07:35:46;23.10;50.21
74968;SHT30;63523;51.880;12.630;2023-07-13T07:38:11;23.11;50.66
74968;SHT30;63523;51.880;12.630;2023-07-13T07:40:38;23.23;51.39
74968;SHT30;63523;51.880;12.630;2023-07-13T07:43:03;23.24;50.94
74968;SHT30;63523;51.880;12.630;2023-07-13T07:45:28;23.27;51.30
74968;SHT30;63523;51.880;12.630;2023-07-13T07:47:54;23.32;51.38
74968;SHT30;63523;51.880;12.630;2023-07-13T07:50:24;23.35;49.29
74968;SHT30;63523;51.880;12.630;2023-07-13T07:52:49;23.34;50.86
74968;SHT30;63523;51.880;12.630;2023-07-13T07:55:15;23.47;50.63
74968;SHT30;63523;51.880;12.630;2023-07-13T07:57:40;23.62;49.89
74968;SHT30;63523;51.880;12.630;2023-07-13T08:00:06;23.70;46.74
74968;SHT30;63523;51.880;12.630;2023-07-13T08:02:31;23.75;47.41
74968;SHT30;63523;51.880;12.630;2023-07-13T08:04:56;23.90;49.25
74968;SHT30;63523;51.880;12.630;2023-07-13T08:07:22;24.20;47.89
74968;SHT30;63523;51.880;12.630;2023-07-13T08:09:47;24.44;46.12
74968;SHT30;63523;51.880;12.630;2023-07-13T08:12:12;24.57;46.29
74968;SHT30;63523;51.880;12.630;2023-07-13T08:14:38;24.69;47.39
74968;SHT30;63523;51.880;12.630;2023-07-13T08:17:03;24.68;45.65
74968;SHT30;63523;51.880;12.630;2023-07-13T08:19:29;24.68;44.25
74968;SHT30;63523;51.880;12.630;2023-07-13T08:21:54;24.44;43.06
74968;SHT30;63523;51.880;12.630;2023-07-13T08:24:23;24.28;45.35
74968;SHT30;63523;51.880;12.630;2023-07-13T08:26:48;24.18;43.72
74968;SHT30;63523;51.880;12.630;2023-07-13T08:29:13;24.11;44.08
74968;SHT30;63523;51.880;12.630;2023-07-13T08:31:38;24.24;45.71
74968;SHT30;63523;51.880;12.630;2023-07-13T08:34:04;24.31;44.61
74968;SHT30;63523;51.880;12.630;2023-07-13T08:36:29;24.40;45.49
74968;SHT30;63523;51.880;12.630;2023-07-13T08:38:55;24.48;45.26
74968;SHT30;63523;51.880;12.630;2023-07-13T08:41:20;24.55;45.35
74968;SHT30;63523;51.880;12.630;2023-07-13T08:43:52;24.62;45.24
74968;SHT30;63523;51.880;12.630;2023-07-13T08:48:58;24.83;44.42
74968;SHT30;63523;51.880;12.630;2023-07-13T08:51:33;24.87;44.61
74968;SHT30;63523;51.880;12.630;2023-07-13T08:54:09;24.89;45.49
74968;SHT30;63523;51.880;12.630;2023-07-13T08:56:37;24.96;45.76
74968;SHT30;63523;51.880;12.630;2023-07-13T08:59:14;25.11;45.10
74968;SHT30;63523;51.880;12.630;2023-07-13T09:04:42;25.23;42.98
74968;SHT30;63523;51.880;12.630;2023-07-13T09:09:58;25.27;43.68
74968;SHT30;63523;51.880;12.630;2023-07-13T09:12:57;25.26;44.03
74968;SHT30;63523;51.880;12.630;2023-07-13T09:18:03;25.11;44.45
74968;SHT30;63523;51.880;12.630;2023-07-13T09:20:37;25.11;43.45
74968;SHT30;63523;51.880;12.630;2023-07-13T09:23:07;25.13;43.95
74968;SHT30;63523;51.880;12.630;2023-07-13T09:25:36;25.49;43.69
74968;SHT30;63523;51.880;12.630;2023-07-13T09:28:17;25.75;43.26
74968;SHT30;63523;51.880;12.630;2023-07-13T09:33:42;25.86;40.01
74968;SHT30;63523;51.880;12.630;2023-07-13T09:36:27;25.51;40.05
74968;SHT30;63523;51.880;12.630;2023-07-13T09:39:09;25.16;40.87
74968;SHT30;63523;51.880;12.630;2023-07-13T09:47:20;25.07;41.30
74968;SHT30;63523;51.880;12.630;2023-07-13T09:49:47;24.92;41.90
74968;SHT30;63523;51.880;12.630;2023-07-13T09:52:15;24.69;43.14
74968;SHT30;63523;51.880;12.630;2023-07-13T09:54:45;24.51;42.96
74968;SHT30;63523;51.880;12.630;2023-07-13T09:57:19;24.27;41.12
74968;SHT30;63523;51.880;12.630;2023-07-13T09:59:49;24.13;41.83
74968;SHT30;63523;51.880;12.630;2023-07-13T10:02:32;24.11;43.10
74968;SHT30;63523;51.880;12.630;2023-07-13T10:05:02;24.21;43.67
74968;SHT30;63523;51.880;12.630;2023-07-13T10:07:29;24.24;43.39
74968;SHT30;63523;51.880;12.630;2023-07-13T10:09:56;24.42;43.38
74968;SHT30;63523;51.880;12.630;2023-07-13T10:12:23;24.55;42.54
74968;SHT30;63523;51.880;12.630;2023-07-13T10:14:55;24.57;42.32
74968;SHT30;63523;51.880;12.630;2023-07-13T10:17:27;24.59;42.35
74968;SHT30;63523;51.880;12.630;2023-07-13T10:19:58;24.55;43.27
74968;SHT30;63523;51.880;12.630;2023-07-13T10:22:27;24.44;42.48
74968;SHT30;63523;51.880;12.630;2023-07-13T10:24:55;24.69;42.48
74968;SHT30;63523;51.880;12.630;2023-07-13T10:27:31;24.92;41.91
74968;SHT30;63523;51.880;12.630;2023-07-13T10:30:15;25.33;40.64
74968;SHT30;63523;51.880;12.630;2023-07-13T10:32:42;25.62;39.95
74968;SHT30;63523;51.880;12.630;2023-07-13T10:35:12;25.83;41.67
74968;SHT30;63523;51.880;12.630;2023-07-13T10:37:57;25.92;39.90
74968;SHT30;63523;51.880;12.630;2023-07-13T10:40:34;25.89;39.47
74968;SHT30;63523;51.880;12.630;2023-07-13T10:43:02;25.85;40.34
74968;SHT30;63523;51.880;12.630;2023-07-13T10:45:31;25.75;41.58
74968;SHT30;63523;51.880;12.630;2023-07-13T10:47:57;25.66;40.36
74968;SHT30;63523;51.880;12.630;2023-07-13T10:50:26;25.41;41.18
74968;SHT30;63523;51.880;12.630;2023-07-13T10:52:55;25.33;41.74
74968;SHT30;63523;51.880;12.630;2023-07-13T10:58:00;25.85;39.66
74968;SHT30;63523;51.880;12.630;2023-07-13T11:00:25;26.09;40.18
74968;SHT30;63523;51.880;12.630;2023-07-13T11:03:00;26.67;38.96
74968;SHT30;63523;51.880;12.630;2023-07-13T11:05:30;27.13;36.85
74968;SHT30;63523;51.880;12.630;2023-07-13T11:08:19;27.51;37.54
74968;SHT30;63523;51.880;12.630;2023-07-13T11:13:55;27.45;35.92
74968;SHT30;63523;51.880;12.630;2023-07-13T11:18:53;26.96;37.92
74968;SHT30;63523;51.880;12.630;2023-07-13T11:21:33;26.69;38.26
74968;SHT30;63523;51.880;12.630;2023-07-13T11:24:17;26.40;39.59
74968;SHT30;63523;51.880;12.630;2023-07-13T11:26:51;26.54;38.67
74968;SHT30;63523;51.880;12.630;2023-07-13T11:31:53;27.57;35.90
74968;SHT30;63523;51.880;12.630;2023-07-13T11:34:27;28.16;34.99
74968;SHT30;63523;51.880;12.630;2023-07-13T11:36:53;28.72;33.06
74968;SHT30;63523;51.880;12.630;2023-07-13T11:39:25;28.99;33.27
74968;SHT30;63523;51.880;12.630;2023-07-13T11:41:57;29.29;32.75
74968;SHT30;63523;51.880;12.630;2023-07-13T11:44:26;29.57;31.15
74968;SHT30;63523;51.880;12.630;2023-07-13T11:46:54;29.84;30.70
74968;SHT30;63523;51.880;12.630;2023-07-13T11:49:21;29.26;30.77
74968;SHT30;63523;51.880;12.630;2023-07-13T11:51:47;28.40;32.53
74968;SHT30;63523;51.880;12.630;2023-07-13T11:54:49;27.62;34.09
74968;SHT30;63523;51.880;12.630;2023-07-13T11:57:26;27.29;35.11
74968;SHT30;63523;51.880;12.630;2023-07-13T11:59:54;26.92;35.05
74968;SHT30;63523;51.880;12.630;2023-07-13T12:02:36;26.85;36.14
74968;SHT30;63523;51.880;12.630;2023-07-13T12:07:36;27.11;34.51
74968;SHT30;63523;51.880;12.630;2023-07-13T12:10:17;27.30;33.44
74968;SHT30;63523;51.880;12.630;2023-07-13T12:15:18;27.38;33.89
74968;SHT30;63523;51.880;12.630;2023-07-13T12:17:43;27.33;34.97
74968;SHT30;63523;51.880;12.630;2023-07-13T12:20:27;27.31;35.15
74968;SHT30;63523;51.880;12.630;2023-07-13T12:22:53;27.51;33.24
74968;SHT30;63523;51.880;12.630;2023-07-13T12:25:19;27.45;34.80
74968;SHT30;63523;51.880;12.630;2023-07-13T12:27:50;27.65;32.66
74968;SHT30;63523;51.880;12.630;2023-07-13T12:30:29;27.58;32.39
74968;SHT30;63523;51.880;12.630;2023-07-13T12:33:05;27.43;31.53
74968;SHT30;63523;51.880;12.630;2023-07-13T12:35:46;27.40;33.67
74968;SHT30;63523;51.880;12.630;2023-07-13T12:38:12;27.43;32.94
74968;SHT30;63523;51.880;12.630;2023-07-13T12:40:38;27.38;32.91
74968;SHT30;63523;51.880;12.630;2023-07-13T12:43:12;27.27;32.68
74968;SHT30;63523;51.880;12.630;2023-07-13T12:45:38;27.02;32.21
74968;SHT30;63523;51.880;12.630;2023-07-13T12:48:12;26.93;34.33
74968;SHT30;63523;51.880;12.630;2023-07-13T12:50:41;26.93;32.54
74968;SHT30;63523;51.880;12.630;2023-07-13T12:53:13;26.89;33.86
74968;SHT30;63523;51.880;12.630;2023-07-13T12:55:42;26.89;33.61
74968;SHT30;63523;51.880;12.630;2023-07-13T12:58:16;27.09;32.93
74968;SHT30;63523;51.880;12.630;2023-07-13T13:00:49;27.02;32.67
74968;SHT30;63523;51.880;12.630;2023-07-13T13:03:44;27.06;34.81
74968;SHT30;63523;51.880;12.630;2023-07-13T13:08:43;27.26;33.29
74968;SHT30;63523;51.880;12.630;2023-07-13T13:11:09;27.34;34.05
74968;SHT30;63523;51.880;12.630;2023-07-13T13:13:34;27.30;33.67
74968;SHT30;63523;51.880;12.630;2023-07-13T13:16:14;27.19;32.35
74968;SHT30;63523;51.880;12.630;2023-07-13T13:18:42;27.17;33.44
74968;SHT30;63523;51.880;12.630;2023-07-13T13:21:09;27.29;34.50
74968;SHT30;63523;51.880;12.630;2023-07-13T13:23:34;27.30;33.01
74968;SHT30;63523;51.880;12.630;2023-07-13T13:26:00;27.22;33.57
74968;SHT30;63523;51.880;12.630;2023-07-13T13:28:25;27.06;34.20
74968;SHT30;63523;51.880;12.630;2023-07-13T13:30:51;26.88;34.70
74968;SHT30;63523;51.880;12.630;2023-07-13T13:33:18;26.81;35.87
74968;SHT30;63523;51.880;12.630;2023-07-13T13:35:44;26.79;35.66
74968;SHT30;63523;51.880;12.630;2023-07-13T13:38:14;26.92;34.64
74968;SHT30;63523;51.880;12.630;2023-07-13T13:40:41;26.92;34.21
74968;SHT30;63523;51.880;12.630;2023-07-13T13:43:24;27.07;34.11
74968;SHT30;63523;51.880;12.630;2023-07-13T13:45:56;27.09;34.09
74968;SHT30;63523;51.880;12.630;2023-07-13T13:48:33;27.14;34.32
74968;SHT30;63523;51.880;12.630;2023-07-13T13:51:00;27.24;33.98
74968;SHT30;63523;51.880;12.630;2023-07-13T13:53:26;27.34;32.90
74968;SHT30;63523;51.880;12.630;2023-07-13T13:55:52;27.27;33.71
74968;SHT30;63523;51.880;12.630;2023-07-13T13:58:18;27.09;33.84
74968;SHT30;63523;51.880;12.630;2023-07-13T14:00:45;27.23;33.77
74968;SHT30;63523;51.880;12.630;2023-07-13T14:03:20;27.14;33.60
74968;SHT30;63523;51.880;12.630;2023-07-13T14:05:46;27.26;34.12
74968;SHT30;63523;51.880;12.630;2023-07-13T14:08:17;27.30;33.83
74968;SHT30;63523;51.880;12.630;2023-07-13T14:10:44;27.27;31.31
74968;SHT30;63523;51.880;12.630;2023-07-13T14:13:32;27.23;32.37
74968;SHT30;63523;51.880;12.630;2023-07-13T14:15:58;27.27;33.77
74968;SHT30;63523;51.880;12.630;2023-07-13T14:18:24;27.36;33.47
74968;SHT30;63523;51.880;12.630;2023-07-13T14:20:50;27.29;32.79
74968;SHT30;63523;51.880;12.630;2023-07-13T14:23:17;27.27;32.12
74968;SHT30;63523;51.880;12.630;2023-07-13T14:25:44;27.27;30.85
74968;SHT30;63523;51.880;12.630;2023-07-13T14:28:22;27.23;31.86
74968;SHT30;63523;51.880;12.630;2023-07-13T14:30:49;27.24;32.34
74968;SHT30;63523;51.880;12.630;2023-07-13T14:33:15;27.44;32.03
74968;SHT30;63523;51.880;12.630;2023-07-13T14:35:41;27.43;32.01
74968;SHT30;63523;51.880;12.630;2023-07-13T14:38:10;27.23;33.11
74968;SHT30;63523;51.880;12.630;2023-07-13T14:40:37;27.07;34.28
74968;SHT30;63523;51.880;12.630;2023-07-13T14:43:02;27.10;34.07
74968;SHT30;63523;51.880;12.630;2023-07-13T14:45:30;27.09;34.51
74968;SHT30;63523;51.880;12.630;2023-07-13T14:47:56;27.00;34.36
74968;SHT30;63523;51.880;12.630;2023-07-13T14:50:30;26.91;34.08
74968;SHT30;63523;51.880;12.630;2023-07-13T14:52:56;26.79;34.32
74968;SHT30;63523;51.880;12.630;2023-07-13T14:55:21;26.82;33.87
74968;SHT30;63523;51.880;12.630;2023-07-13T14:57:48;26.92;33.66
74968;SHT30;63523;51.880;12.630;2023-07-13T15:00:17;27.09;34.00
74968;SHT30;63523;51.880;12.630;2023-07-13T15:02:51;26.96;33.24
74968;SHT30;63523;51.880;12.630;2023-07-13T15:05:19;26.89;34.31
74968;SHT30;63523;51.880;12.630;2023-07-13T15:07:45;26.61;34.66
74968;SHT30;63523;51.880;12.630;2023-07-13T15:10:19;26.64;33.77
74968;SHT30;63523;51.880;12.630;2023-07-13T15:12:45;26.71;34.40
74968;SHT30;63523;51.880;12.630;2023-07-13T15:15:11;26.65;34.70
74968;SHT30;63523;51.880;12.630;2023-07-13T15:17:41;26.58;34.95
74968;SHT30;63523;51.880;12.630;2023-07-13T15:22:50;26.49;35.44
74968;SHT30;63523;51.880;12.630;2023-07-13T15:25:23;26.56;35.06
74968;SHT30;63523;51.880;12.630;2023-07-13T15:27:50;26.48;33.96
74968;SHT30;63523;51.880;12.630;2023-07-13T15:30:16;26.44;34.89
74968;SHT30;63523;51.880;12.630;2023-07-13T15:32:42;26.48;34.85
74968;SHT30;63523;51.880;12.630;2023-07-13T15:35:25;26.68;34.26
74968;SHT30;63523;51.880;12.630;2023-07-13T15:37:51;26.49;34.31
74968;SHT30;63523;51.880;12.630;2023-07-13T15:40:17;26.41;34.76
74968;SHT30;63523;51.880;12.630;2023-07-13T15:42:45;26.27;34.94
74968;SHT30;63523;51.880;12.630;2023-07-13T15:45:16;26.10;35.37
74968;SHT30;63523;51.880;12.630;2023-07-13T15:47:43;25.97;34.84
74968;SHT30;63523;51.880;12.630;2023-07-13T15:50:22;26.02;35.57
74968;SHT30;63523;51.880;12.630;2023-07-13T15:52:52;26.04;34.93
74968;SHT30;63523;51.880;12.630;2023-07-13T15:55:18;26.10;35.45
74968;SHT30;63523;51.880;12.630;2023-07-13T15:57:49;26.20;35.60
74968;SHT30;63523;51.880;12.630;2023-07-13T16:00:21;26.31;35.53